Time;durP1;ratioP1;P1;durP2;ratioP2;P2;SDS_P1;SDS_P2;PMS_P1;PMS_P2;Temp;Humidity;BMP_temperature;BMP_pressure;BME280_temperature;BME280_humidity;BME280_pressure;Samples;Min_cycle;Max_cycle;Signal;HPM_P1;HPM_P2
2023/07/27 00:01:54;;;;;;;56.77;2.43;;;;;;;;;;5094371;28;20994;-71
2023/07/27 00:04:22;;;;;;;57.10;2.47;;;;;;;;;;5100533;28;20448;-71
2023/07/27 00:06:49;;;;;;;56.83;2.40;;;;;;;;;;5100496;28;20531;-71
2023/07/27 00:09:16;;;;;;;56.63;2.40;;;;;;;;;;5100381;28;20457;-71
2023/07/27 00:11:45;;;;;;;56.90;2.40;;;;;;;;;;5100203;28;20457;-71
2023/07/27 00:14:12;;;;;;;57.10;2.80;;;;;;;;;;5100717;28;20446;-71
2023/07/27 00:16:39;;;;;;;56.80;2.50;;;;;;;;;;5100308;28;20452;-71
2023/07/27 00:19:06;;;;;;;56.73;2.40;;;;;;;;;;5100348;28;20826;-70
2023/07/27 00:21:33;;;;;;;56.73;2.50;;;;;;;;;;5100107;28;20541;-71
2023/07/27 00:24:01;;;;;;;56.87;2.40;;;;;;;;;;5100151;28;20859;-70
2023/07/27 00:26:28;;;;;;;56.57;2.40;;;;;;;;;;5099976;28;20450;-71
2023/07/27 00:28:56;;;;;;;56.90;2.50;;;;;;;;;;5100251;28;20526;-69
2023/07/27 00:31:23;;;;;;;56.60;2.20;;;;;;;;;;5099658;28;20461;-71
2023/07/27 00:33:50;;;;;;;56.70;2.30;;;;;;;;;;5099253;28;20470;-71
2023/07/27 00:36:17;;;;;;;56.63;2.30;;;;;;;;;;5091967;28;20452;-71
2023/07/27 00:38:44;;;;;;;56.67;2.37;;;;;;;;;;5085886;28;20450;-71
2023/07/27 00:41:12;;;;;;;56.63;2.40;;;;;;;;;;5089015;28;20455;-70
2023/07/27 00:43:39;;;;;;;56.87;2.70;;;;;;;;;;5087174;28;20487;-71
2023/07/27 00:46:07;;;;;;;56.67;2.30;;;;;;;;;;5099206;28;20442;-71
2023/07/27 00:48:34;;;;;;;56.50;2.20;;;;;;;;;;5083257;28;20450;-71
2023/07/27 00:51:02;;;;;;;56.60;2.50;;;;;;;;;;5098707;28;20442;-70
2023/07/27 00:53:29;;;;;;;56.53;2.40;;;;;;;;;;5099457;28;20504;-71
2023/07/27 00:55:56;;;;;;;61.13;3.10;;;;;;;;;;5098205;28;20457;-71
2023/07/27 00:58:24;;;;;;;56.47;2.37;;;;;;;;;;5098301;28;20450;-71
2023/07/27 01:00:51;;;;;;;56.90;2.40;;;;;;;;;;5098417;28;20992;-71
2023/07/27 01:03:19;;;;;;;56.70;2.50;;;;;;;;;;5099057;28;20496;-72
2023/07/27 01:05:47;;;;;;;56.47;2.40;;;;;;;;;;5091554;28;20451;-71
2023/07/27 01:08:14;;;;;;;56.70;2.50;;;;;;;;;;5090025;28;20575;-70
2023/07/27 01:10:45;;;;;;;56.43;2.30;;;;;;;;;;5098881;28;20450;-71
2023/07/27 01:13:16;;;;;;;56.87;2.50;;;;;;;;;;5098627;28;20470;-70
2023/07/27 01:15:45;;;;;;;56.77;2.43;;;;;;;;;;5093430;28;20450;-71
2023/07/27 01:18:17;;;;;;;56.57;2.47;;;;;;;;;;5096388;28;20450;-70
2023/07/27 01:20:48;;;;;;;56.70;2.47;;;;;;;;;;5096156;28;20452;-71
2023/07/27 01:23:30;;;;;;;56.60;2.30;;;;;;;;;;5096776;28;20993;-71
2023/07/27 01:26:24;;;;;;;56.53;2.47;;;;;;;;;;5084035;28;20533;-71
2023/07/27 01:28:59;;;;;;;56.80;2.20;;;;;;;;;;5060689;28;20454;-71
2023/07/27 01:31:30;;;;;;;56.73;2.30;;;;;;;;;;5097105;28;20537;-71
2023/07/27 01:33:59;;;;;;;56.47;2.30;;;;;;;;;;5096484;28;20447;-70
2023/07/27 01:36:28;;;;;;;56.40;2.30;;;;;;;;;;5096497;28;20461;-71
2023/07/27 01:38:59;;;;;;;56.87;3.17;;;;;;;;;;5096559;28;20450;-71
2023/07/27 01:41:28;;;;;;;56.70;2.30;;;;;;;;;;5095862;28;20442;-71
2023/07/27 01:43:55;;;;;;;56.70;2.60;;;;;;;;;;5096256;28;20852;-71
2023/07/27 01:46:22;;;;;;;56.47;2.27;;;;;;;;;;5096236;28;20461;-71
2023/07/27 01:48:51;;;;;;;56.70;2.70;;;;;;;;;;5096423;28;20458;-71
2023/07/27 01:51:19;;;;;;;56.43;2.10;;;;;;;;;;5095857;28;20446;-71
2023/07/27 01:53:46;;;;;;;56.70;2.60;;;;;;;;;;5096130;28;20467;-71
2023/07/27 01:56:14;;;;;;;56.40;2.30;;;;;;;;;;5088327;28;20455;-70
2023/07/27 01:58:42;;;;;;;56.60;2.30;;;;;;;;;;5075945;28;20489;-70
2023/07/27 02:01:09;;;;;;;56.80;2.30;;;;;;;;;;5075426;28;20471;-71
2023/07/27 02:03:37;;;;;;;56.47;2.17;;;;;;;;;;5075300;28;20488;-71
2023/07/27 02:06:05;;;;;;;56.50;2.40;;;;;;;;;;5075248;28;20457;-71
2023/07/27 02:08:33;;;;;;;56.57;2.30;;;;;;;;;;5074953;28;20447;-71
2023/07/27 02:11:01;;;;;;;56.60;2.37;;;;;;;;;;5075097;28;20811;-69
2023/07/27 02:13:32;;;;;;;56.80;2.30;;;;;;;;;;5075465;28;20477;-70
2023/07/27 02:16:03;;;;;;;57.67;4.33;;;;;;;;;;5075685;28;20460;-71
2023/07/27 02:18:30;;;;;;;56.60;2.50;;;;;;;;;;5075100;28;20481;-71
2023/07/27 02:20:58;;;;;;;56.90;2.43;;;;;;;;;;5074608;28;20447;-71
2023/07/27 02:23:26;;;;;;;56.80;2.40;;;;;;;;;;5074668;28;20496;-71
2023/07/27 02:25:54;;;;;;;56.63;2.60;;;;;;;;;;5073976;28;20907;-71
2023/07/27 02:28:21;;;;;;;56.53;2.20;;;;;;;;;;5075105;28;20447;-70
2023/07/27 02:30:48;;;;;;;56.47;2.30;;;;;;;;;;5074502;28;20455;-71
2023/07/27 02:33:15;;;;;;;56.67;2.30;;;;;;;;;;5074866;28;20558;-71
2023/07/27 02:35:42;;;;;;;56.50;2.37;;;;;;;;;;5074567;28;20505;-69
2023/07/27 02:38:09;;;;;;;56.47;2.40;;;;;;;;;;5074231;28;20465;-71
2023/07/27 02:40:38;;;;;;;56.60;2.50;;;;;;;;;;5085873;28;20450;-70
2023/07/27 02:43:05;;;;;;;56.47;2.20;;;;;;;;;;5084070;28;20483;-70
2023/07/27 02:45:34;;;;;;;56.37;2.20;;;;;;;;;;5088929;28;20443;-71
2023/07/27 02:48:01;;;;;;;56.70;2.40;;;;;;;;;;5093538;28;20450;-70
2023/07/27 02:50:28;;;;;;;56.60;2.50;;;;;;;;;;5086548;28;20446;-71
2023/07/27 02:52:55;;;;;;;56.50;2.20;;;;;;;;;;5084114;28;20469;-70
2023/07/27 02:55:22;;;;;;;56.53;2.10;;;;;;;;;;5092805;28;20962;-70
2023/07/27 02:57:51;;;;;;;57.03;2.20;;;;;;;;;;5093263;28;20446;-70
2023/07/27 03:00:18;;;;;;;56.80;2.43;;;;;;;;;;5093065;28;20446;-71
2023/07/27 03:02:45;;;;;;;56.50;2.20;;;;;;;;;;5087790;28;20478;-71
2023/07/27 03:05:12;;;;;;;56.60;2.40;;;;;;;;;;5085335;28;20446;-71
2023/07/27 03:07:39;;;;;;;56.53;2.50;;;;;;;;;;5093298;28;20448;-71
2023/07/27 03:10:06;;;;;;;56.70;2.20;;;;;;;;;;5092888;28;20442;-71
2023/07/27 03:12:34;;;;;;;56.47;2.27;;;;;;;;;;5093004;28;20470;-70
2023/07/27 03:15:02;;;;;;;56.73;2.33;;;;;;;;;;5093392;28;20447;-71
2023/07/27 03:17:29;;;;;;;56.47;2.20;;;;;;;;;;5093367;28;20484;-71
2023/07/27 03:19:57;;;;;;;56.57;2.20;;;;;;;;;;5093258;28;20452;-71
2023/07/27 03:22:24;;;;;;;56.57;2.20;;;;;;;;;;5092927;28;20470;-71
2023/07/27 03:24:51;;;;;;;56.47;2.20;;;;;;;;;;5092902;28;20486;-71
2023/07/27 03:27:18;;;;;;;56.60;2.40;;;;;;;;;;5092618;28;20461;-71
2023/07/27 03:29:46;;;;;;;56.37;2.20;;;;;;;;;;5092456;28;20456;-71
2023/07/27 03:32:14;;;;;;;56.40;2.10;;;;;;;;;;5093152;28;20466;-71
2023/07/27 03:34:41;;;;;;;56.53;2.27;;;;;;;;;;5093029;28;20446;-71
2023/07/27 03:37:08;;;;;;;56.57;2.13;;;;;;;;;;5092717;28;20454;-70
2023/07/27 03:39:35;;;;;;;56.40;2.07;;;;;;;;;;5092268;28;20454;-71
2023/07/27 03:42:02;;;;;;;56.60;2.10;;;;;;;;;;5091805;28;20527;-71
2023/07/27 03:44:29;;;;;;;56.60;2.30;;;;;;;;;;5092335;28;20483;-71
2023/07/27 03:46:57;;;;;;;56.40;2.20;;;;;;;;;;5092689;28;20450;-71
2023/07/27 03:49:25;;;;;;;56.33;2.20;;;;;;;;;;5093442;28;20442;-71
2023/07/27 03:51:52;;;;;;;57.30;3.07;;;;;;;;;;5092407;28;20471;-70
2023/07/27 03:54:19;;;;;;;56.23;2.10;;;;;;;;;;5093147;28;20455;-71
2023/07/27 03:56:46;;;;;;;56.50;2.30;;;;;;;;;;5092976;28;20449;-71
2023/07/27 03:59:13;;;;;;;56.57;2.10;;;;;;;;;;5092738;28;20795;-71
2023/07/27 04:01:40;;;;;;;56.60;2.30;;;;;;;;;;5092310;28;20450;-70
2023/07/27 04:04:08;;;;;;;56.47;2.10;;;;;;;;;;5092104;28;20968;-71
2023/07/27 04:06:36;;;;;;;56.37;2.30;;;;;;;;;;5091849;28;20459;-71
2023/07/27 04:09:03;;;;;;;56.70;2.30;;;;;;;;;;5091778;28;20962;-70
2023/07/27 04:11:33;;;;;;;56.40;2.07;;;;;;;;;;5091417;28;20451;-71
2023/07/27 04:14:00;;;;;;;56.57;2.30;;;;;;;;;;5091600;28;20447;-70
2023/07/27 04:16:27;;;;;;;56.60;2.30;;;;;;;;;;5091702;28;20826;-71
2023/07/27 04:18:54;;;;;;;56.47;2.10;;;;;;;;;;5091813;28;20453;-71
2023/07/27 04:21:21;;;;;;;56.37;2.20;;;;;;;;;;5091634;28;20450;-71
2023/07/27 04:23:49;;;;;;;56.43;2.20;;;;;;;;;;5091552;28;20989;-71
2023/07/27 04:26:17;;;;;;;56.50;2.30;;;;;;;;;;5092140;28;20528;-71
2023/07/27 04:28:44;;;;;;;56.47;2.53;;;;;;;;;;5092269;28;20442;-71
2023/07/27 04:31:11;;;;;;;56.47;2.07;;;;;;;;;;5091552;28;20847;-70
2023/07/27 04:33:38;;;;;;;56.80;2.60;;;;;;;;;;5091563;28;20469;-69
2023/07/27 04:36:05;;;;;;;56.50;2.07;;;;;;;;;;5091790;28;20442;-71
2023/07/27 04:38:32;;;;;;;56.37;2.10;;;;;;;;;;5078190;28;20451;-70
2023/07/27 04:41:01;;;;;;;56.33;2.07;;;;;;;;;;5081510;28;20854;-71
2023/07/27 04:43:28;;;;;;;56.40;2.20;;;;;;;;;;5083327;28;20487;-71
2023/07/27 04:45:55;;;;;;;56.27;2.10;;;;;;;;;;5082329;28;20943;-71
2023/07/27 04:48:22;;;;;;;56.57;2.30;;;;;;;;;;5092810;28;20453;-71
2023/07/27 04:50:49;;;;;;;56.53;2.30;;;;;;;;;;5095268;28;20447;-71
2023/07/27 04:53:16;;;;;;;56.27;2.20;;;;;;;;;;5096023;28;21059;-71
2023/07/27 04:55:43;;;;;;;56.37;2.10;;;;;;;;;;5096383;28;20472;-71
2023/07/27 04:58:12;;;;;;;56.40;2.20;;;;;;;;;;5096823;28;20453;-71
2023/07/27 05:00:39;;;;;;;56.70;2.23;;;;;;;;;;5096201;28;20814;-70
2023/07/27 05:03:06;;;;;;;56.30;2.00;;;;;;;;;;5086837;28;20482;-71
2023/07/27 05:05:33;;;;;;;56.30;2.10;;;;;;;;;;5090923;28;20842;-70
2023/07/27 05:08:00;;;;;;;56.50;2.10;;;;;;;;;;5096544;28;20446;-71
2023/07/27 05:10:27;;;;;;;56.50;2.40;;;;;;;;;;5096383;28;20465;-70
2023/07/27 05:12:54;;;;;;;56.27;2.10;;;;;;;;;;5096428;28;20561;-71
2023/07/27 05:15:23;;;;;;;56.47;2.30;;;;;;;;;;5096606;28;20457;-71
2023/07/27 05:17:50;;;;;;;56.47;2.10;;;;;;;;;;5096233;28;20935;-70
2023/07/27 05:20:17;;;;;;;56.23;2.10;;;;;;;;;;5096158;28;20454;-70
2023/07/27 05:22:44;;;;;;;56.57;2.50;;;;;;;;;;5096332;28;20471;-71
2023/07/27 05:25:13;;;;;;;59.83;2.60;;;;;;;;;;5096029;28;20486;-71
2023/07/27 05:27:40;;;;;;;56.07;2.00;;;;;;;;;;5095998;28;20524;-71
2023/07/27 05:30:08;;;;;;;56.07;2.00;;;;;;;;;;5095573;28;20442;-69
2023/07/27 05:32:37;;;;;;;56.33;2.20;;;;;;;;;;5095550;28;20462;-71
2023/07/27 05:35:04;;;;;;;56.17;2.00;;;;;;;;;;5096365;28;20450;-70
2023/07/27 05:37:32;;;;;;;56.40;1.97;;;;;;;;;;5095860;28;20450;-71
2023/07/27 05:39:59;;;;;;;56.60;2.17;;;;;;;;;;5095430;28;20795;-71
2023/07/27 05:42:26;;;;;;;56.47;2.10;;;;;;;;;;5082190;28;20964;-70
2023/07/27 05:44:53;;;;;;;56.27;1.90;;;;;;;;;;5073656;28;20487;-72
2023/07/27 05:47:20;;;;;;;56.27;2.17;;;;;;;;;;5072577;28;20455;-71
2023/07/27 05:49:48;;;;;;;56.27;2.37;;;;;;;;;;5072663;28;20966;-72
2023/07/27 05:52:16;;;;;;;56.37;2.10;;;;;;;;;;5073014;28;20482;-69
2023/07/27 05:54:43;;;;;;;56.40;2.40;;;;;;;;;;5073668;28;20460;-68
2023/07/27 05:57:10;;;;;;;56.13;2.10;;;;;;;;;;5073497;28;20815;-70
2023/07/27 05:59:37;;;;;;;56.30;2.03;;;;;;;;;;5073168;28;20451;-70
2023/07/27 06:02:04;;;;;;;56.60;2.77;;;;;;;;;;5073090;28;21005;-71
2023/07/27 06:04:31;;;;;;;56.37;2.10;;;;;;;;;;5073493;28;20490;-70
2023/07/27 06:07:00;;;;;;;56.50;2.20;;;;;;;;;;5067421;28;20623;-71
2023/07/27 06:09:28;;;;;;;56.50;2.57;;;;;;;;;;5081684;28;20982;-70
2023/07/27 06:11:55;;;;;;;56.77;2.17;;;;;;;;;;5085802;28;20478;-70
2023/07/27 06:14:22;;;;;;;56.20;2.10;;;;;;;;;;5084604;28;20504;-70
2023/07/27 06:16:49;;;;;;;56.17;2.10;;;;;;;;;;5090203;28;20446;-70
2023/07/27 06:19:16;;;;;;;56.93;3.10;;;;;;;;;;5077080;28;20447;-70
2023/07/27 06:21:43;;;;;;;56.67;2.43;;;;;;;;;;5080799;28;20444;-70
2023/07/27 06:24:12;;;;;;;56.43;2.20;;;;;;;;;;5093051;28;20479;-71
2023/07/27 06:26:39;;;;;;;56.40;2.20;;;;;;;;;;5093041;28;20447;-70
2023/07/27 06:29:07;;;;;;;56.27;1.93;;;;;;;;;;5093465;28;20442;-71
2023/07/27 06:31:34;;;;;;;56.27;2.00;;;;;;;;;;5093091;28;20458;-70
2023/07/27 06:34:01;;;;;;;56.50;2.13;;;;;;;;;;5093015;28;20541;-71
2023/07/27 06:36:28;;;;;;;56.90;2.30;;;;;;;;;;5091030;28;20443;-70
2023/07/27 06:38:55;;;;;;;56.60;2.70;;;;;;;;;;5080963;28;20460;-70
2023/07/27 06:41:25;;;;;;;56.37;2.03;;;;;;;;;;5080660;28;20474;-70
2023/07/27 06:43:52;;;;;;;56.33;2.50;;;;;;;;;;5073079;28;20497;-70
2023/07/27 06:46:19;;;;;;;56.40;2.20;;;;;;;;;;5072774;28;20959;-70
2023/07/27 06:48:47;;;;;;;56.23;2.00;;;;;;;;;;5072533;28;20454;-71
2023/07/27 06:51:14;;;;;;;56.50;2.40;;;;;;;;;;5072761;28;20493;-69
2023/07/27 06:53:41;;;;;;;56.43;2.03;;;;;;;;;;5073127;28;20467;-71
2023/07/27 06:56:08;;;;;;;57.57;2.30;;;;;;;;;;5072469;28;20894;-70
2023/07/27 06:58:36;;;;;;;56.40;2.07;;;;;;;;;;5072174;28;20451;-70
2023/07/27 07:01:04;;;;;;;56.50;2.00;;;;;;;;;;5072151;28;20448;-70
2023/07/27 07:03:31;;;;;;;56.37;2.00;;;;;;;;;;5071923;28;20877;-70
2023/07/27 07:05:58;;;;;;;56.50;2.00;;;;;;;;;;5072087;28;20509;-70
2023/07/27 07:08:25;;;;;;;56.57;2.37;;;;;;;;;;5072021;28;20931;-70
2023/07/27 07:10:52;;;;;;;56.27;2.00;;;;;;;;;;5071518;28;20451;-69
2023/07/27 07:13:20;;;;;;;56.53;2.03;;;;;;;;;;5071394;28;20482;-71
2023/07/27 07:15:48;;;;;;;56.57;1.93;;;;;;;;;;5071995;28;20970;-70
2023/07/27 07:18:15;;;;;;;56.50;2.20;;;;;;;;;;5072020;28;20486;-70
2023/07/27 07:20:42;;;;;;;56.70;2.13;;;;;;;;;;5071632;28;20447;-71
2023/07/27 07:23:09;;;;;;;56.23;1.90;;;;;;;;;;5071581;28;20911;-70
2023/07/27 07:25:36;;;;;;;56.40;2.10;;;;;;;;;;5071844;28;20836;-70
2023/07/27 07:28:04;;;;;;;56.90;2.40;;;;;;;;;;5071705;28;20447;-70
2023/07/27 07:30:31;;;;;;;56.57;1.93;;;;;;;;;;5071417;28;20626;-71
2023/07/27 07:32:59;;;;;;;56.57;2.27;;;;;;;;;;5071654;28;20847;-70
2023/07/27 07:35:26;;;;;;;56.23;1.93;;;;;;;;;;5071574;28;20444;-70
2023/07/27 07:37:53;;;;;;;56.37;2.10;;;;;;;;;;5071775;28;20453;-70
2023/07/27 07:40:24;;;;;;;56.40;2.10;;;;;;;;;;5071272;28;20451;-70
2023/07/27 07:42:51;;;;;;;56.17;2.10;;;;;;;;;;5071781;28;20471;-70
2023/07/27 07:45:18;;;;;;;56.40;2.10;;;;;;;;;;5071399;28;20505;-71
2023/07/27 07:47:45;;;;;;;56.60;1.90;;;;;;;;;;5071492;28;20454;-70
2023/07/27 07:50:14;;;;;;;56.13;2.00;;;;;;;;;;5071048;28;20447;-71
2023/07/27 07:52:41;;;;;;;56.23;2.00;;;;;;;;;;5071604;28;20463;-70
2023/07/27 07:55:08;;;;;;;56.40;2.00;;;;;;;;;;5071225;28;20459;-70
2023/07/27 07:57:35;;;;;;;56.67;2.70;;;;;;;;;;5071376;28;20530;-70
2023/07/27 08:00:03;;;;;;;56.40;1.93;;;;;;;;;;5071166;28;20455;-70
2023/07/27 08:02:30;;;;;;;56.40;2.10;;;;;;;;;;5071193;28;20510;-71
2023/07/27 08:04:57;;;;;;;56.13;1.90;;;;;;;;;;5071477;28;20647;-70
2023/07/27 08:07:25;;;;;;;56.23;1.97;;;;;;;;;;5071066;28;20453;-70
2023/07/27 08:09:52;;;;;;;56.60;2.17;;;;;;;;;;5071669;28;20447;-71
2023/07/27 08:12:20;;;;;;;56.40;2.00;;;;;;;;;;5071080;28;20525;-68
2023/07/27 08:14:47;;;;;;;56.20;1.87;;;;;;;;;;5071314;28;20454;-67
2023/07/27 08:17:14;;;;;;;56.57;2.20;;;;;;;;;;5071139;28;20455;-68
2023/07/27 08:19:41;;;;;;;56.33;2.07;;;;;;;;;;5071678;28;20449;-69
2023/07/27 08:22:08;;;;;;;58.20;2.13;;;;;;;;;;5071132;28;20471;-70
2023/07/27 08:24:36;;;;;;;56.40;2.33;;;;;;;;;;5074622;28;20473;-69
2023/07/27 08:27:06;;;;;;;56.17;2.00;;;;;;;;;;5075238;28;20461;-70
2023/07/27 08:29:34;;;;;;;56.40;2.47;;;;;;;;;;5075153;28;20544;-69
2023/07/27 08:32:01;;;;;;;56.40;1.90;;;;;;;;;;5074757;28;20471;-67
2023/07/27 08:34:28;;;;;;;56.37;2.10;;;;;;;;;;5075210;28;20447;-69
2023/07/27 08:36:55;;;;;;;56.90;2.10;;;;;;;;;;5074967;28;20823;-67
2023/07/27 08:39:22;;;;;;;56.87;2.23;;;;;;;;;;5074938;28;20453;-69
2023/07/27 08:41:50;;;;;;;56.53;2.20;;;;;;;;;;5074324;28;20482;-68
2023/07/27 08:44:18;;;;;;;57.07;2.57;;;;;;;;;;5075011;28;20478;-69
2023/07/27 08:46:45;;;;;;;56.50;1.97;;;;;;;;;;5074954;28;20479;-69
2023/07/27 08:49:14;;;;;;;57.10;2.20;;;;;;;;;;5074738;28;20456;-70
2023/07/27 08:51:44;;;;;;;56.27;1.93;;;;;;;;;;5074088;28;20553;-69
2023/07/27 08:54:11;;;;;;;56.50;2.00;;;;;;;;;;5074858;28;20462;-70
2023/07/27 08:56:38;;;;;;;56.60;2.00;;;;;;;;;;5074223;28;20443;-69
2023/07/27 08:59:07;;;;;;;56.50;2.10;;;;;;;;;;5074697;28;20466;-68
2023/07/27 09:01:34;;;;;;;56.20;2.10;;;;;;;;;;5074152;28;20482;-69
2023/07/27 09:04:01;;;;;;;56.07;2.20;;;;;;;;;;5074442;28;20451;-69
2023/07/27 09:06:39;;;;;;;56.10;2.00;;;;;;;;;;5074220;28;20540;-70
2023/07/27 09:09:15;;;;;;;56.23;2.00;;;;;;;;;;5074434;28;20943;-69
2023/07/27 09:11:43;;;;;;;56.40;2.73;;;;;;;;;;5074090;28;20453;-69
2023/07/27 09:14:11;;;;;;;56.30;2.00;;;;;;;;;;5074045;28;20447;-70
2023/07/27 09:16:38;;;;;;;56.07;2.27;;;;;;;;;;5074094;28;20489;-70
2023/07/27 09:19:06;;;;;;;56.43;2.20;;;;;;;;;;5074004;28;20931;-70
2023/07/27 09:21:40;;;;;;;56.07;2.10;;;;;;;;;;5073495;28;20451;-70
2023/07/27 09:24:10;;;;;;;56.50;2.50;;;;;;;;;;5074123;28;20458;-71
2023/07/27 09:26:44;;;;;;;56.57;2.20;;;;;;;;;;5073913;28;20839;-71
2023/07/27 09:29:13;;;;;;;56.47;2.20;;;;;;;;;;5074137;28;20537;-71
2023/07/27 09:31:46;;;;;;;56.23;2.00;;;;;;;;;;5073601;28;20444;-71
2023/07/27 09:34:13;;;;;;;56.33;2.00;;;;;;;;;;5073462;28;20461;-72
2023/07/27 09:36:41;;;;;;;56.60;2.00;;;;;;;;;;5073215;28;20466;-70
2023/07/27 09:39:08;;;;;;;56.30;2.20;;;;;;;;;;5073743;28;20501;-72
2023/07/27 09:41:35;;;;;;;56.13;2.10;;;;;;;;;;5073497;28;20497;-71
2023/07/27 09:44:03;;;;;;;56.60;2.20;;;;;;;;;;5073624;28;20701;-71
2023/07/27 09:46:32;;;;;;;56.43;2.20;;;;;;;;;;5073611;28;20475;-71
2023/07/27 09:48:59;;;;;;;56.47;2.37;;;;;;;;;;5073395;28;20459;-71
2023/07/27 09:51:27;;;;;;;56.10;2.00;;;;;;;;;;5073525;28;20497;-72
2023/07/27 09:53:55;;;;;;;56.20;2.33;;;;;;;;;;5073379;28;20909;-71
2023/07/27 09:56:23;;;;;;;56.70;2.30;;;;;;;;;;5073653;28;20459;-71
2023/07/27 09:58:50;;;;;;;56.03;2.13;;;;;;;;;;5073414;28;20454;-72
2023/07/27 10:01:18;;;;;;;56.37;2.30;;;;;;;;;;5073084;28;20443;-72
2023/07/27 10:03:46;;;;;;;56.60;2.30;;;;;;;;;;5073358;28;20513;-72
2023/07/27 10:06:16;;;;;;;56.50;2.07;;;;;;;;;;5073305;28;20487;-71
2023/07/27 10:08:43;;;;;;;56.30;2.07;;;;;;;;;;5073453;28;20486;-72
2023/07/27 10:11:11;;;;;;;56.13;2.40;;;;;;;;;;5065657;28;20457;-71
2023/07/27 10:13:39;;;;;;;55.70;1.90;;;;;;;;;;5077777;28;20843;-71
2023/07/27 10:16:09;;;;;;;58.50;2.50;;;;;;;;;;5084189;28;20439;-71
2023/07/27 10:18:40;;;;;;;56.43;2.27;;;;;;;;;;5084692;28;20442;-70
2023/07/27 10:21:28;;;;;;;56.27;2.10;;;;;;;;;;5087487;28;20451;-71
2023/07/27 10:23:56;;;;;;;56.30;2.30;;;;;;;;;;5079521;28;20474;-71
2023/07/27 10:26:43;;;;;;;56.60;2.70;;;;;;;;;;5078754;28;20483;-71
2023/07/27 10:29:15;;;;;;;56.17;1.90;;;;;;;;;;5073503;28;20450;-71
2023/07/27 10:31:43;;;;;;;56.30;1.90;;;;;;;;;;5076710;28;20443;-71
2023/07/27 10:34:14;;;;;;;56.10;2.10;;;;;;;;;;5072969;28;20538;-69
2023/07/27 10:36:52;;;;;;;56.50;2.40;;;;;;;;;;5069082;28;20455;-71
2023/07/27 10:39:20;;;;;;;56.27;2.10;;;;;;;;;;5074497;28;20916;-71
2023/07/27 10:42:00;;;;;;;56.37;2.00;;;;;;;;;;5080727;28;20443;-71
2023/07/27 10:44:28;;;;;;;56.20;2.00;;;;;;;;;;5081496;28;20457;-71
2023/07/27 10:47:01;;;;;;;56.47;2.10;;;;;;;;;;5081346;28;20474;-70
2023/07/27 10:49:27;;;;;;;56.37;1.90;;;;;;;;;;5072272;28;20491;-71
2023/07/27 10:51:56;;;;;;;56.07;1.90;;;;;;;;;;5071958;28;20471;-71
2023/07/27 10:54:23;;;;;;;56.07;2.03;;;;;;;;;;5072054;28;20463;-71
2023/07/27 10:56:51;;;;;;;58.03;2.73;;;;;;;;;;5072233;28;20450;-71
2023/07/27 10:59:18;;;;;;;56.30;1.93;;;;;;;;;;5072103;28;20456;-71
2023/07/27 11:01:48;;;;;;;56.60;2.10;;;;;;;;;;5071481;28;20462;-70
2023/07/27 11:04:15;;;;;;;56.30;1.80;;;;;;;;;;5072542;28;20443;-70
2023/07/27 11:06:43;;;;;;;56.07;1.80;;;;;;;;;;5071712;28;20483;-71
2023/07/27 11:09:12;;;;;;;56.33;1.83;;;;;;;;;;5072153;28;20447;-71
2023/07/27 11:11:40;;;;;;;56.80;2.47;;;;;;;;;;5071387;28;20834;-69
2023/07/27 11:14:07;;;;;;;56.40;2.30;;;;;;;;;;5071830;28;20448;-71
2023/07/27 11:16:37;;;;;;;56.17;1.80;;;;;;;;;;5074775;28;20450;-71
2023/07/27 11:19:04;;;;;;;56.40;1.90;;;;;;;;;;5076321;28;20449;-70
2023/07/27 11:21:32;;;;;;;56.23;1.90;;;;;;;;;;5083088;28;20867;-71
2023/07/27 11:23:59;;;;;;;56.17;2.07;;;;;;;;;;5091906;28;20504;-70
2023/07/27 11:26:28;;;;;;;56.07;1.80;;;;;;;;;;5091482;28;20482;-71
2023/07/27 11:28:55;;;;;;;56.10;1.90;;;;;;;;;;5091800;28;20453;-71
2023/07/27 11:31:22;;;;;;;56.20;2.17;;;;;;;;;;5091508;28;20477;-70
2023/07/27 11:33:49;;;;;;;56.30;1.80;;;;;;;;;;5091697;28;20467;-71
2023/07/27 11:36:16;;;;;;;56.00;1.90;;;;;;;;;;5085057;28;20455;-72
2023/07/27 11:38:43;;;;;;;56.37;2.20;;;;;;;;;;5078582;28;20451;-71
2023/07/27 11:41:10;;;;;;;56.47;2.20;;;;;;;;;;5081310;28;20891;-71
2023/07/27 11:43:41;;;;;;;56.37;2.03;;;;;;;;;;5079781;28;20467;-71
2023/07/27 11:46:09;;;;;;;56.30;1.93;;;;;;;;;;5091719;28;20478;-70
2023/07/27 11:48:36;;;;;;;56.40;2.40;;;;;;;;;;5091628;28;20442;-71
2023/07/27 11:51:03;;;;;;;57.10;2.43;;;;;;;;;;5091329;28;20450;-71
2023/07/27 11:53:30;;;;;;;56.00;1.80;;;;;;;;;;5091399;28;21004;-71
2023/07/27 11:55:57;;;;;;;55.87;1.87;;;;;;;;;;5077627;28;20835;-71
2023/07/27 11:58:27;;;;;;;56.37;2.00;;;;;;;;;;5070901;28;20448;-71
2023/07/27 12:00:56;;;;;;;56.13;1.90;;;;;;;;;;5071079;28;20448;-71
2023/07/27 12:03:25;;;;;;;56.30;2.00;;;;;;;;;;5071221;28;20475;-69
2023/07/27 12:05:54;;;;;;;55.97;2.00;;;;;;;;;;5069308;28;20479;-71
2023/07/27 12:08:22;;;;;;;55.87;1.80;;;;;;;;;;5073247;28;20447;-71
2023/07/27 12:10:52;;;;;;;56.60;1.90;;;;;;;;;;5075772;28;20455;-71
2023/07/27 12:13:21;;;;;;;57.47;2.00;;;;;;;;;;5069668;28;20833;-71
2023/07/27 12:15:56;;;;;;;56.17;1.97;;;;;;;;;;5082393;28;20804;-71
2023/07/27 12:18:25;;;;;;;56.27;2.10;;;;;;;;;;5091279;28;20833;-71
2023/07/27 12:20:52;;;;;;;56.30;2.10;;;;;;;;;;5090581;28;20446;-71
2023/07/27 12:23:19;;;;;;;56.30;2.10;;;;;;;;;;5091234;28;20485;-71
2023/07/27 12:25:46;;;;;;;56.50;2.13;;;;;;;;;;5091050;28;20446;-71
2023/07/27 12:28:13;;;;;;;56.33;2.03;;;;;;;;;;5091097;28;20446;-71
2023/07/27 12:30:41;;;;;;;56.33;2.10;;;;;;;;;;5090886;28;20450;-71
2023/07/27 12:33:08;;;;;;;56.17;1.80;;;;;;;;;;5069191;28;20483;-71
2023/07/27 12:35:36;;;;;;;56.77;2.43;;;;;;;;;;5076528;28;20556;-71
2023/07/27 12:38:03;;;;;;;56.17;2.03;;;;;;;;;;5078505;28;20526;-71
2023/07/27 12:40:30;;;;;;;56.43;2.07;;;;;;;;;;5078805;28;20709;-70
2023/07/27 12:42:58;;;;;;;56.30;1.97;;;;;;;;;;5089661;28;20560;-71
2023/07/27 12:45:26;;;;;;;56.20;2.17;;;;;;;;;;5090767;28;20969;-71
2023/07/27 12:47:53;;;;;;;56.80;2.10;;;;;;;;;;5090805;28;20496;-71
2023/07/27 12:50:21;;;;;;;56.30;1.80;;;;;;;;;;5090629;28;20450;-70
2023/07/27 12:52:50;;;;;;;56.20;1.70;;;;;;;;;;5090858;28;20477;-71
2023/07/27 12:55:17;;;;;;;56.27;1.80;;;;;;;;;;5089099;28;20470;-70
2023/07/27 12:57:45;;;;;;;56.50;2.20;;;;;;;;;;5083741;28;20450;-69
2023/07/27 13:00:15;;;;;;;56.17;2.10;;;;;;;;;;5079680;28;20451;-71
2023/07/27 13:02:43;;;;;;;56.47;2.10;;;;;;;;;;5082320;28;20477;-70
2023/07/27 13:05:12;;;;;;;56.20;1.93;;;;;;;;;;5091021;28;20822;-70
2023/07/27 13:07:40;;;;;;;55.87;2.10;;;;;;;;;;5090671;28;20478;-70
2023/07/27 13:10:09;;;;;;;56.33;2.30;;;;;;;;;;5091475;28;20933;-70
2023/07/27 13:12:36;;;;;;;56.20;2.10;;;;;;;;;;5094383;28;20498;-71
2023/07/27 13:15:03;;;;;;;55.97;2.00;;;;;;;;;;5094376;28;20442;-71
2023/07/27 13:17:30;;;;;;;57.07;2.70;;;;;;;;;;5076177;28;20533;-70
2023/07/27 13:19:58;;;;;;;56.70;2.43;;;;;;;;;;5073453;28;20952;-70
2023/07/27 13:22:25;;;;;;;56.27;2.30;;;;;;;;;;5081253;28;20472;-70
2023/07/27 13:24:52;;;;;;;56.50;2.20;;;;;;;;;;5091257;28;20458;-70
2023/07/27 13:27:21;;;;;;;56.40;1.90;;;;;;;;;;5073053;28;20487;-71
2023/07/27 13:29:49;;;;;;;56.27;2.03;;;;;;;;;;5081748;28;20485;-71
2023/07/27 13:32:16;;;;;;;56.10;1.93;;;;;;;;;;5073732;28;20475;-70
2023/07/27 13:34:43;;;;;;;56.17;1.97;;;;;;;;;;5081848;28;20459;-71
2023/07/27 13:37:10;;;;;;;56.37;2.20;;;;;;;;;;5085516;28;20442;-71
2023/07/27 13:39:38;;;;;;;55.70;2.00;;;;;;;;;;5085528;28;20450;-72
2023/07/27 13:42:05;;;;;;;56.77;2.77;;;;;;;;;;5093494;28;20524;-72
2023/07/27 13:44:34;;;;;;;55.70;2.03;;;;;;;;;;5093860;28;20446;-70
2023/07/27 13:47:01;;;;;;;56.30;2.10;;;;;;;;;;5093860;28;20581;-71
2023/07/27 13:49:28;;;;;;;56.30;2.20;;;;;;;;;;5093861;28;20446;-70
2023/07/27 13:51:55;;;;;;;56.17;2.00;;;;;;;;;;5086044;28;20476;-71
2023/07/27 13:54:22;;;;;;;56.30;1.90;;;;;;;;;;5087114;28;20468;-70
2023/07/27 13:56:49;;;;;;;56.50;2.00;;;;;;;;;;5093348;28;20530;-72
2023/07/27 13:59:16;;;;;;;56.03;2.23;;;;;;;;;;5093402;28;20450;-69
2023/07/27 14:01:45;;;;;;;56.10;1.97;;;;;;;;;;5093038;28;20942;-71
2023/07/27 14:04:12;;;;;;;56.27;2.30;;;;;;;;;;5093540;28;20455;-72
2023/07/27 14:06:39;;;;;;;55.87;1.90;;;;;;;;;;5093316;28;20478;-71
2023/07/27 14:09:06;;;;;;;56.40;2.43;;;;;;;;;;5093282;28;20450;-72
2023/07/27 14:11:34;;;;;;;56.03;2.00;;;;;;;;;;5083629;28;20451;-71
2023/07/27 14:14:02;;;;;;;56.60;2.10;;;;;;;;;;5082111;28;20533;-71
2023/07/27 14:16:29;;;;;;;56.13;1.97;;;;;;;;;;5087753;28;20454;-70
2023/07/27 14:18:57;;;;;;;56.27;2.00;;;;;;;;;;5087476;28;20448;-72
2023/07/27 14:21:24;;;;;;;56.93;2.50;;;;;;;;;;5078306;28;21007;-72
2023/07/27 14:23:52;;;;;;;56.57;2.13;;;;;;;;;;5082244;28;20460;-72
2023/07/27 14:26:19;;;;;;;56.90;2.10;;;;;;;;;;5082047;28;20979;-71
2023/07/27 14:28:46;;;;;;;56.03;1.90;;;;;;;;;;5086499;28;20470;-70
2023/07/27 14:31:13;;;;;;;57.17;3.17;;;;;;;;;;5084561;28;20447;-72
2023/07/27 14:33:40;;;;;;;56.03;1.90;;;;;;;;;;5093028;28;20562;-71
2023/07/27 14:36:09;;;;;;;56.30;2.10;;;;;;;;;;5092722;28;20732;-72